createdAt,value
2023-03-04T00:01:51.517Z,100156.44
2023-03-04T00:04:20.936Z,100166.75
2023-03-04T00:06:50.433Z,100160.34
2023-03-04T00:09:19.511Z,100163.75
2023-03-04T00:11:48.517Z,100170.69
2023-03-04T00:14:18.877Z,100164.09
2023-03-04T00:16:49.152Z,100168.63
2023-03-04T00:19:18.092Z,100167.22
2023-03-04T00:21:47.138Z,100169.81
2023-03-04T00:24:16.474Z,100168.22
2023-03-04T00:26:46.665Z,100168.56
2023-03-04T00:29:16.154Z,100160.19
2023-03-04T00:31:46.929Z,100160.53
2023-03-04T00:34:25.420Z,100166.69
2023-03-04T00:36:55.176Z,100169.63
2023-03-04T00:39:24.642Z,100174.00
2023-03-04T00:41:54.175Z,100175.31
2023-03-04T00:44:26.307Z,100173.56
2023-03-04T00:46:57.645Z,100188.41
2023-03-04T00:49:27.123Z,100170.72
2023-03-04T00:51:56.518Z,100186.56
2023-03-04T00:54:26.098Z,100184.16
2023-03-04T00:56:57.197Z,100181.94
2023-03-04T00:59:26.632Z,100188.84
2023-03-04T01:01:58.079Z,100184.06
2023-03-04T01:04:27.587Z,100176.50
2023-03-04T01:06:57.094Z,100172.50
2023-03-04T01:09:27.172Z,100179.41
2023-03-04T01:11:56.967Z,100172.06
2023-03-04T01:14:27.130Z,100177.41
2023-03-04T01:16:58.193Z,100170.00
2023-03-04T01:19:27.784Z,100175.16
2023-03-04T01:21:57.302Z,100175.16
2023-03-04T01:24:27.093Z,100172.75
2023-03-04T01:26:56.543Z,100174.69
2023-03-04T01:29:25.998Z,100179.09
2023-03-04T01:31:55.503Z,100168.94
2023-03-04T01:34:26.486Z,100166.53
2023-03-04T01:36:56.067Z,100166.72
2023-03-04T01:39:25.566Z,100164.31
2023-03-04T01:41:55.132Z,100157.56
2023-03-04T01:44:24.930Z,100159.50
2023-03-04T01:46:57.160Z,100158.88
2023-03-04T01:49:28.608Z,100150.53
2023-03-04T01:51:58.826Z,100148.91
2023-03-04T01:54:28.823Z,100145.91
2023-03-04T01:57:00.360Z,100151.88
2023-03-04T01:59:49.440Z,100146.41
2023-03-04T02:02:19.797Z,100147.41
2023-03-04T02:04:50.702Z,100145.59
2023-03-04T02:07:20.211Z,100133.88
2023-03-04T02:09:49.788Z,100139.84
2023-03-04T02:12:19.539Z,100129.06
2023-03-04T02:14:49.048Z,100128.13
2023-03-04T02:17:18.566Z,100132.97
2023-03-04T02:19:58.509Z,100116.91
2023-03-04T02:22:28.628Z,100132.56
2023-03-04T02:25:02.213Z,100130.16
2023-03-04T02:27:33.438Z,100128.53
2023-03-04T02:30:02.889Z,100127.91
2023-03-04T02:32:32.656Z,100127.91
2023-03-04T02:35:02.387Z,100126.50
2023-03-04T02:37:32.434Z,100124.09
2023-03-04T02:40:01.926Z,100122.47
2023-03-04T02:42:32.910Z,100118.47
2023-03-04T02:45:03.110Z,100113.50
2023-03-04T02:47:32.749Z,100117.88
2023-03-04T02:50:02.399Z,100114.66
2023-03-04T02:52:31.867Z,100119.00
2023-03-04T02:55:01.333Z,100119.16
2023-03-04T02:57:32.270Z,100119.69
2023-03-04T03:00:01.680Z,100113.75
2023-03-04T03:02:31.341Z,100117.50
2023-03-04T03:05:01.195Z,100105.75
2023-03-04T03:07:31.175Z,100115.09
2023-03-04T03:10:01.538Z,100106.72
2023-03-04T03:12:32.679Z,100108.47
2023-03-04T03:15:02.096Z,100107.25
2023-03-04T03:17:31.812Z,100113.38
2023-03-04T03:20:01.355Z,100112.56
2023-03-04T03:22:32.992Z,100112.91
2023-03-04T03:25:02.549Z,100110.50
2023-03-04T03:27:33.516Z,100118.59
2023-03-04T03:30:03.424Z,100114.41
2023-03-04T03:32:32.973Z,100116.97
2023-03-04T03:35:02.514Z,100106.69
2023-03-04T03:37:32.149Z,100101.53
2023-03-04T03:40:01.521Z,100112.81
2023-03-04T03:42:32.439Z,100107.66
2023-03-04T03:45:01.877Z,100100.91
2023-03-04T03:47:31.390Z,100113.63
2023-03-04T03:50:00.737Z,100116.81
2023-03-04T03:52:30.200Z,100112.31
2023-03-04T03:55:02.112Z,100113.88
2023-03-04T03:57:33.372Z,100122.44
2023-03-04T04:00:03.358Z,100108.13
2023-03-04T04:02:42.189Z,100117.63
2023-03-04T04:05:12.642Z,100112.63
2023-03-04T04:07:42.470Z,100118.59
2023-03-04T04:10:12.983Z,100120.38
2023-03-04T04:12:43.848Z,100114.41
2023-03-04T04:15:14.579Z,100112.47
2023-03-04T04:17:44.094Z,100111.47
2023-03-04T04:20:14.121Z,100104.75
2023-03-04T04:22:43.592Z,100106.16
2023-03-04T04:25:13.041Z,100114.69
2023-03-04T04:27:43.857Z,100102.78
2023-03-04T04:30:14.397Z,100105.00
2023-03-04T04:32:43.828Z,100101.47
2023-03-04T04:35:13.311Z,100108.22
2023-03-04T04:37:42.838Z,100106.47
2023-03-04T04:40:13.822Z,100104.66
2023-03-04T04:42:44.669Z,100107.25
2023-03-04T04:45:14.081Z,100105.47
2023-03-04T04:47:43.987Z,100101.91
2023-03-04T04:50:13.772Z,100108.84
2023-03-04T04:52:43.307Z,100108.66
2023-03-04T04:55:12.962Z,100109.47
2023-03-04T04:57:43.825Z,100107.69
2023-03-04T05:00:15.047Z,100104.31
2023-03-04T05:02:44.455Z,100104.50
2023-03-04T05:05:13.903Z,100105.31
2023-03-04T05:07:43.572Z,100109.47
2023-03-04T05:10:13.331Z,100104.66
2023-03-04T05:12:45.919Z,100105.66
2023-03-04T05:15:15.325Z,100104.06
2023-03-04T05:17:44.834Z,100103.88
2023-03-04T05:20:14.806Z,100116.59
2023-03-04T05:22:44.312Z,100103.88
2023-03-04T05:25:13.779Z,100101.13
2023-03-04T05:27:44.581Z,100108.84
2023-03-04T05:30:15.120Z,100101.91
2023-03-04T05:32:44.672Z,100108.66
2023-03-04T05:35:14.115Z,100112.03
2023-03-04T05:37:43.545Z,100109.47
2023-03-04T05:40:14.780Z,100099.16
2023-03-04T05:42:45.673Z,100100.75
2023-03-04T05:45:15.377Z,100102.38
2023-03-04T05:47:44.808Z,100100.41
2023-03-04T05:50:14.348Z,100095.25
2023-03-04T05:52:43.918Z,100098.66
2023-03-04T05:55:13.794Z,100097.47
2023-03-04T05:57:45.037Z,100100.06
2023-03-04T06:00:16.439Z,100100.06
2023-03-04T06:02:46.966Z,100107.28
2023-03-04T06:05:17.290Z,100108.09
2023-03-04T06:07:47.152Z,100112.25
2023-03-04T06:10:19.295Z,100117.41
2023-03-04T06:12:50.084Z,100117.22
2023-03-04T06:15:19.703Z,100117.06
2023-03-04T06:17:49.016Z,100117.88
2023-03-04T06:20:18.880Z,100117.88
2023-03-04T06:22:48.378Z,100123.03
2023-03-04T06:25:18.141Z,100129.31
2023-03-04T06:27:49.734Z,100136.09
2023-03-04T06:30:21.943Z,100143.00
2023-03-04T06:32:51.739Z,100135.44
2023-03-04T06:35:21.478Z,100139.00
2023-03-04T06:37:50.949Z,100139.78
2023-03-04T06:40:20.734Z,100145.75
2023-03-04T06:42:50.126Z,100141.56
2023-03-04T06:45:21.183Z,100149.91
2023-03-04T06:47:50.495Z,100141.25
2023-03-04T06:50:20.351Z,100147.97
2023-03-04T06:52:50.057Z,100155.72
2023-03-04T06:55:19.738Z,100150.56
2023-03-04T06:57:49.162Z,100148.97
2023-03-04T07:00:21.572Z,100152.16
2023-03-04T07:02:51.658Z,100154.56
2023-03-04T07:05:21.961Z,100160.53
2023-03-04T07:07:51.428Z,100151.81
2023-03-04T07:10:21.544Z,100160.34
2023-03-04T07:12:51.102Z,100160.19
2023-03-04T07:15:21.974Z,100160.94
2023-03-04T07:17:51.365Z,100174.66
2023-03-04T07:20:21.097Z,100182.03
2023-03-04T07:22:50.452Z,100173.31
2023-03-04T07:25:20.161Z,100180.88
2023-03-04T07:27:49.530Z,100173.97
2023-03-04T07:30:19.595Z,100180.72
2023-03-04T07:32:50.453Z,100172.97
2023-03-04T07:35:20.140Z,100176.38
2023-03-04T07:37:49.548Z,100180.53
2023-03-04T07:40:19.514Z,100186.50
2023-03-04T07:42:52.002Z,100195.81
2023-03-04T07:45:21.922Z,100194.84
2023-03-04T07:47:53.064Z,100192.91
2023-03-04T07:50:23.498Z,100190.94
2023-03-04T07:52:53.534Z,100186.41
2023-03-04T07:55:23.042Z,100192.22
2023-03-04T07:57:52.448Z,100190.25
2023-03-04T08:00:23.066Z,100186.69
2023-03-04T08:02:53.883Z,100193.28
2023-03-04T08:05:25.280Z,100193.91
2023-03-04T08:07:58.035Z,100189.53
2023-03-04T08:10:27.505Z,100194.34
2023-03-04T08:12:57.048Z,100192.38
2023-03-04T08:15:27.456Z,100199.16
2023-03-04T08:17:58.323Z,100197.19
2023-03-04T08:20:27.875Z,100196.84
2023-03-04T08:22:57.464Z,100199.25
2023-03-04T08:25:26.962Z,100201.66
2023-03-04T08:27:56.446Z,100197.91
2023-03-04T08:30:27.369Z,100193.41
2023-03-04T08:32:58.303Z,100197.56
2023-03-04T08:35:27.941Z,100198.97
2023-03-04T08:37:57.363Z,100202.19
2023-03-04T08:40:27.415Z,100199.28
2023-03-04T08:42:56.843Z,100201.50
2023-03-04T08:45:26.326Z,100204.69
2023-03-04T08:47:57.161Z,100209.50
2023-03-04T08:50:27.596Z,100203.16
2023-03-04T08:52:57.055Z,100202.03
2023-03-04T08:55:26.522Z,100201.06
2023-03-04T08:57:56.535Z,100202.47
2023-03-04T09:00:26.133Z,100201.31
2023-03-04T09:02:56.085Z,100207.09
2023-03-04T09:05:27.000Z,100198.03
2023-03-04T09:07:56.436Z,100197.84
2023-03-04T09:10:27.021Z,100207.81
2023-03-04T09:12:56.443Z,100208.28
2023-03-04T09:15:25.951Z,100199.19
2023-03-04T09:17:55.409Z,100193.66
2023-03-04T09:20:26.395Z,100200.06
2023-03-04T09:22:55.856Z,100194.53
2023-03-04T09:25:25.609Z,100197.56
2023-03-04T09:27:55.122Z,100193.63
2023-03-04T09:30:24.788Z,100197.66
2023-03-04T09:32:54.256Z,100193.56
2023-03-04T09:35:23.772Z,100197.56
2023-03-04T09:37:54.663Z,100185.09
2023-03-04T09:40:29.383Z,100194.88
2023-03-04T09:43:03.579Z,100197.72
2023-03-04T09:45:39.743Z,100202.53
2023-03-04T09:48:14.767Z,100197.78
2023-03-04T09:50:57.461Z,100197.25
2023-03-04T09:53:37.085Z,100197.88
2023-03-04T09:56:08.767Z,100197.50
2023-03-04T09:58:52.857Z,100200.34
2023-03-04T10:01:26.791Z,100197.38
2023-03-04T10:04:00.591Z,100193.44
2023-03-04T10:06:32.898Z,100196.47
2023-03-04T10:09:08.140Z,100199.66
2023-03-04T10:11:42.774Z,100196.91
2023-03-04T10:14:35.935Z,100202.50
2023-03-04T10:17:14.650Z,100209.28
2023-03-04T10:19:58.292Z,100201.34
2023-03-04T10:22:37.209Z,100206.91
2023-03-04T10:25:20.172Z,100193.81
2023-03-04T10:27:55.664Z,100204.59
2023-03-04T10:30:40.248Z,100198.88
2023-03-04T10:33:15.072Z,100203.06
2023-03-04T10:35:48.009Z,100200.72
2023-03-04T10:38:17.923Z,100202.94
2023-03-04T10:40:48.797Z,100197.56
2023-03-04T10:43:19.845Z,100199.19
2023-03-04T10:45:50.915Z,100191.25
2023-03-04T10:48:23.066Z,100185.69
2023-03-04T10:50:52.440Z,100192.47
2023-03-04T10:53:33.518Z,100186.94
2023-03-04T10:56:04.443Z,100191.75
2023-03-04T10:58:33.976Z,100173.22
2023-03-04T11:01:07.068Z,100177.66
2023-03-04T11:03:38.754Z,100176.47
2023-03-04T11:06:18.391Z,100169.16
2023-03-04T11:08:55.612Z,100171.19
2023-03-04T11:11:40.178Z,100171.00
2023-03-04T11:14:20.793Z,100167.25
2023-03-04T11:16:57.013Z,100156.31
2023-03-04T11:19:35.751Z,100154.16
2023-03-04T11:22:06.053Z,100160.75
2023-03-04T11:24:38.415Z,100145.63
2023-03-04T11:27:20.025Z,100137.50
2023-03-04T11:29:54.620Z,100143.88
2023-03-04T11:32:29.296Z,100134.94
2023-03-04T11:35:06.159Z,100134.75
2023-03-04T11:37:41.425Z,100131.59
2023-03-04T11:40:15.471Z,100125.22
2023-03-04T11:42:50.754Z,100129.25
2023-03-04T11:45:29.743Z,100134.06
2023-03-04T11:48:11.050Z,100127.91
2023-03-04T11:51:11.999Z,100135.28
2023-03-04T11:54:08.976Z,100129.53
2023-03-04T11:56:47.011Z,100125.75
2023-03-04T12:00:06.850Z,100121.16
2023-03-04T12:02:53.020Z,100116.41
2023-03-04T12:05:39.206Z,100117.81
2023-03-04T12:08:54.989Z,100114.22
2023-03-04T12:11:40.250Z,100109.47
2023-03-04T12:14:28.634Z,100105.13
2023-03-04T12:17:40.233Z,100104.13
2023-03-04T12:20:46.231Z,100104.72
2023-03-04T12:23:39.723Z,100099.94
2023-03-04T12:26:21.587Z,100101.34
2023-03-04T12:29:00.959Z,100104.53
2023-03-04T12:31:40.829Z,100102.53
2023-03-04T12:34:39.617Z,100093.59
2023-03-04T12:37:35.958Z,100101.38
2023-03-04T12:40:25.199Z,100095.19
2023-03-04T12:43:20.801Z,100097.59
2023-03-04T12:46:03.376Z,100094.81
2023-03-04T12:48:38.200Z,100089.44
2023-03-04T12:51:23.683Z,100089.25
2023-03-04T12:54:09.779Z,100091.66
2023-03-04T12:56:44.816Z,100086.06
2023-03-04T12:59:18.675Z,100092.47
2023-03-04T13:01:57.348Z,100082.09
2023-03-04T13:04:37.156Z,100078.50
2023-03-04T13:07:16.272Z,100075.72
2023-03-04T13:09:54.636Z,100072.13
2023-03-04T13:12:25.681Z,100069.34
2023-03-04T13:15:36.771Z,100073.53
2023-03-04T13:18:33.996Z,100069.34
2023-03-04T13:21:24.562Z,100071.94
2023-03-04T13:23:55.342Z,100076.13
2023-03-04T13:26:33.167Z,100070.53
2023-03-04T13:29:36.951Z,100074.13
2023-03-04T13:32:11.776Z,100068.13
2023-03-04T13:34:50.438Z,100065.34
2023-03-04T13:37:38.652Z,100058.59
2023-03-04T13:40:37.640Z,100059.78
2023-03-04T13:43:27.739Z,100053.41
2023-03-04T13:45:57.775Z,100055.81
2023-03-04T13:48:32.558Z,100046.25
2023-03-04T13:51:01.992Z,100035.88
2023-03-04T13:53:45.340Z,100035.69
2023-03-04T13:56:37.091Z,100032.28
2023-03-04T13:59:25.866Z,100034.06
2023-03-04T14:02:04.968Z,100025.53
2023-03-04T14:04:37.307Z,100028.31
2023-03-04T14:07:23.187Z,100028.13
2023-03-04T14:10:00.719Z,100021.94
2023-03-04T14:12:32.675Z,100027.09
2023-03-04T14:15:06.374Z,100031.28
2023-03-04T14:17:38.013Z,100030.31
2023-03-04T14:20:24.354Z,100028.69
2023-03-04T14:22:54.518Z,100016.13
2023-03-04T14:25:28.658Z,100026.72
2023-03-04T14:28:12.736Z,100013.75
2023-03-04T14:30:44.502Z,100011.16
2023-03-04T14:33:27.613Z,100011.16
2023-03-04T14:36:00.607Z,100007.78
2023-03-04T14:38:33.201Z,100000.81
2023-03-04T14:41:08.337Z,99998.41
2023-03-04T14:43:43.712Z,100002.97
2023-03-04T14:46:16.968Z,99994.03
2023-03-04T14:48:51.766Z,99990.44
2023-03-04T14:51:50.626Z,99994.81
2023-03-04T14:54:36.424Z,99976.69
2023-03-04T14:57:29.865Z,99983.06
2023-03-04T15:00:16.353Z,99977.88
2023-03-04T15:02:46.153Z,99972.69
2023-03-04T15:05:25.819Z,99973.31
2023-03-04T15:07:57.919Z,99976.88
2023-03-04T15:10:30.405Z,99970.72
2023-03-04T15:13:04.209Z,99973.91
2023-03-04T15:15:41.015Z,99966.13
2023-03-04T15:18:31.221Z,99957.78
2023-03-04T15:21:02.595Z,99971.31
2023-03-04T15:23:34.425Z,99968.13
2023-03-04T15:26:06.970Z,99974.91
2023-03-04T15:28:40.378Z,99964.94
2023-03-04T15:31:18.220Z,99968.53
2023-03-04T15:33:48.853Z,99965.94
2023-03-04T15:36:21.636Z,99970.13
2023-03-04T15:38:53.657Z,99964.75
2023-03-04T15:41:26.928Z,99962.94
2023-03-04T15:43:57.736Z,99962.94
2023-03-04T15:46:27.196Z,99963.72
2023-03-04T15:48:56.682Z,99951.78
2023-03-04T15:51:26.969Z,99952.41
2023-03-04T15:53:59.120Z,99954.19
2023-03-04T15:56:32.982Z,99956.16
2023-03-04T15:59:11.877Z,99951.16
2023-03-04T16:01:42.154Z,99952.56
2023-03-04T16:04:15.943Z,99949.41
2023-03-04T16:06:47.254Z,99948.78
2023-03-04T16:09:19.801Z,99945.59
2023-03-04T16:11:49.490Z,99950.56
2023-03-04T16:14:20.239Z,99946.41
2023-03-04T16:16:50.571Z,99947.41
2023-03-04T16:19:19.975Z,99952.59
2023-03-04T16:21:49.384Z,99942.63
2023-03-04T16:24:22.063Z,99947.78
2023-03-04T16:26:52.871Z,99951.19
2023-03-04T16:29:23.777Z,99952.16
2023-03-04T16:31:55.551Z,99947.19
2023-03-04T16:34:25.079Z,99951.19
2023-03-04T16:36:54.429Z,99958.13
2023-03-04T16:39:26.016Z,99953.19
2023-03-04T16:41:55.400Z,99954.34
2023-03-04T16:44:26.364Z,99944.81
2023-03-04T16:46:55.773Z,99945.81
2023-03-04T16:49:25.236Z,99945.00
2023-03-04T16:51:54.650Z,99946.00
2023-03-04T16:54:30.779Z,99950.97
2023-03-04T16:57:01.060Z,99948.41
2023-03-04T16:59:32.498Z,99939.44
2023-03-04T17:02:03.214Z,99948.97
2023-03-04T17:04:32.837Z,99940.22
2023-03-04T17:07:02.260Z,99944.81
2023-03-04T17:09:31.786Z,99944.59
2023-03-04T17:12:01.148Z,99948.19
2023-03-04T17:14:32.060Z,99945.81
2023-03-04T17:17:01.726Z,99949.97
2023-03-04T17:19:31.265Z,99950.19
2023-03-04T17:22:02.601Z,99949.38
2023-03-04T17:24:32.885Z,99949.38
2023-03-04T17:27:02.396Z,99952.56
2023-03-04T17:29:33.269Z,99956.75
2023-03-04T17:32:02.753Z,99961.72
2023-03-04T17:34:32.339Z,99966.13
2023-03-04T17:37:02.010Z,99962.53
2023-03-04T17:39:31.553Z,99950.97
2023-03-04T17:42:00.980Z,99954.56
2023-03-04T17:44:30.576Z,99950.38
2023-03-04T17:47:01.392Z,99949.75
2023-03-04T17:49:31.021Z,99958.53
2023-03-04T17:52:00.565Z,99954.94
2023-03-04T17:54:30.028Z,99954.75
2023-03-04T17:56:59.568Z,99955.56
2023-03-04T17:59:29.095Z,99948.59
2023-03-04T18:01:58.581Z,99958.75
2023-03-04T18:04:29.521Z,99948.41
2023-03-04T18:06:58.897Z,99948.97
2023-03-04T18:09:28.467Z,99940.63
2023-03-04T18:12:00.421Z,99942.59
2023-03-04T18:14:29.884Z,99943.81
2023-03-04T18:16:59.240Z,99943.00
2023-03-04T18:19:30.241Z,99934.22
2023-03-04T18:21:59.816Z,99944.19
2023-03-04T18:24:32.414Z,99933.84
2023-03-04T18:27:01.953Z,99930.28
2023-03-04T18:29:31.402Z,99931.03
2023-03-04T18:32:01.035Z,99929.06
2023-03-04T18:34:31.859Z,99927.88
2023-03-04T18:37:01.306Z,99934.63
2023-03-04T18:39:30.644Z,99928.47
2023-03-04T18:42:00.630Z,99925.88
2023-03-04T18:44:30.199Z,99926.66
2023-03-04T18:46:59.917Z,99923.28
2023-03-04T18:49:29.417Z,99926.47
2023-03-04T18:52:00.166Z,99924.69
2023-03-04T18:54:29.552Z,99925.50
2023-03-04T18:57:03.284Z,99924.50
2023-03-04T18:59:38.024Z,99929.06
2023-03-04T19:02:13.318Z,99930.47
2023-03-04T19:04:42.827Z,99925.50
2023-03-04T19:07:13.646Z,99930.66
2023-03-04T19:09:43.020Z,99927.28
2023-03-04T19:12:12.419Z,99925.50
2023-03-04T19:14:41.984Z,99924.69
2023-03-04T19:17:11.402Z,99929.88
2023-03-04T19:19:41.290Z,99925.88
2023-03-04T19:22:12.943Z,99868.50
2023-03-04T19:24:42.487Z,99929.44
2023-03-04T19:27:12.187Z,99928.47
2023-03-04T19:29:41.694Z,99925.09
2023-03-04T19:32:11.183Z,99929.44
2023-03-04T19:34:40.765Z,99936.25
2023-03-04T19:37:10.461Z,99933.03
2023-03-04T19:39:43.290Z,99913.91
2023-03-04T19:42:14.110Z,99914.72
2023-03-04T19:44:45.004Z,99927.88
2023-03-04T19:47:14.940Z,99918.50
2023-03-04T19:49:44.463Z,99915.91
2023-03-04T19:52:14.134Z,99923.69
2023-03-04T19:54:45.085Z,99925.28
2023-03-04T19:57:14.651Z,99917.31
2023-03-04T19:59:44.153Z,99920.72
2023-03-04T20:02:14.536Z,99914.72
2023-03-04T20:04:44.220Z,99905.94
2023-03-04T20:07:13.849Z,99909.16
2023-03-04T20:09:44.716Z,99904.16
2023-03-04T20:12:16.551Z,99906.56
2023-03-04T20:14:46.251Z,99899.78
2023-03-04T20:17:15.942Z,99901.56
2023-03-04T20:19:46.274Z,99904.16
2023-03-04T20:22:18.967Z,99901.56
2023-03-04T20:24:50.098Z,99902.56
2023-03-04T20:27:19.697Z,99913.53
2023-03-04T20:29:49.611Z,99904.97
2023-03-04T20:32:20.102Z,99912.75
2023-03-04T20:34:54.339Z,99914.72
2023-03-04T20:37:24.349Z,99916.31
2023-03-04T20:40:00.576Z,99894.41
2023-03-04T20:42:32.050Z,99903.97
2023-03-04T20:45:01.620Z,99920.13
2023-03-04T20:47:32.022Z,99912.34
2023-03-04T20:50:01.708Z,99913.13
2023-03-04T20:52:31.500Z,99913.13
2023-03-04T20:55:02.446Z,99921.91
2023-03-04T20:57:32.430Z,99902.75
2023-03-04T21:00:02.132Z,99904.34
2023-03-04T21:02:31.997Z,99896.00
2023-03-04T21:05:02.547Z,99890.00
2023-03-04T21:07:32.246Z,99905.97
2023-03-04T21:10:04.246Z,99889.63
2023-03-04T21:12:33.870Z,99896.38
2023-03-04T21:15:03.492Z,99898.38
2023-03-04T21:17:33.301Z,99901.75
2023-03-04T21:20:02.904Z,99909.75
2023-03-04T21:22:32.770Z,99903.97
2023-03-04T21:25:03.832Z,99892.78
2023-03-04T21:27:37.484Z,99878.25
2023-03-04T21:30:09.178Z,99897.97
2023-03-04T21:32:39.075Z,99891.22
2023-03-04T21:35:12.182Z,99893.81
2023-03-04T21:37:42.632Z,99891.22
2023-03-04T21:40:15.419Z,99886.03
2023-03-04T21:42:45.097Z,99893.81
2023-03-04T21:45:14.814Z,99887.03
2023-03-04T21:47:44.626Z,99890.59
2023-03-04T21:50:14.331Z,99878.84
2023-03-04T21:52:43.959Z,99882.03
2023-03-04T21:55:15.126Z,99883.25
2023-03-04T21:57:44.748Z,99877.06
2023-03-04T22:00:16.853Z,99880.44
2023-03-04T22:02:46.456Z,99881.44
2023-03-04T22:05:17.947Z,99871.69
2023-03-04T22:07:48.641Z,99876.88
2023-03-04T22:10:20.073Z,99881.84
2023-03-04T22:12:49.658Z,99875.69
2023-03-04T22:15:22.262Z,99882.63
2023-03-04T22:17:52.061Z,99873.09
2023-03-04T22:20:21.986Z,99874.66
2023-03-04T22:22:51.545Z,99866.13
2023-03-04T22:25:22.473Z,99872.47
2023-03-04T22:27:52.087Z,99871.69
2023-03-04T22:30:25.124Z,99862.53
2023-03-04T22:32:54.719Z,99864.13
2023-03-04T22:35:24.282Z,99866.72
2023-03-04T22:37:54.234Z,99864.91
2023-03-04T22:40:25.787Z,99863.13
2023-03-04T22:42:55.434Z,99866.72
2023-03-04T22:45:28.130Z,99827.25
2023-03-04T22:47:57.848Z,99855.97
2023-03-04T22:50:27.703Z,99865.31
2023-03-04T22:52:57.220Z,99859.31
2023-03-04T22:55:27.997Z,99860.13
2023-03-04T22:57:57.466Z,99863.34
2023-03-04T23:00:29.510Z,99852.38
2023-03-04T23:02:59.216Z,99852.38
2023-03-04T23:05:29.318Z,99864.50
2023-03-04T23:07:59.078Z,99854.16
2023-03-04T23:10:29.914Z,99854.94
2023-03-04T23:12:59.419Z,99852.38
2023-03-04T23:15:28.916Z,99854.94
2023-03-04T23:17:58.378Z,99848.00
2023-03-04T23:20:29.319Z,99850.78
2023-03-04T23:22:58.889Z,99853.16
2023-03-04T23:25:29.707Z,99847.19
2023-03-04T23:27:59.158Z,99848.19
2023-03-04T23:30:28.798Z,99854.94
2023-03-04T23:32:58.317Z,99850.59
2023-03-04T23:35:27.866Z,99845.41
2023-03-04T23:37:57.316Z,99846.97
2023-03-04T23:40:26.757Z,99840.22
2023-03-04T23:42:58.068Z,99839.41
2023-03-04T23:45:27.467Z,99830.63
2023-03-04T23:47:56.929Z,99839.41
2023-03-04T23:50:26.372Z,99829.06
2023-03-04T23:52:55.859Z,99829.88
2023-03-04T23:55:25.373Z,99834.25
2023-03-04T23:57:56.230Z,99826.28
